sensor_id;sensor_type;location;lat;lon;timestamp;P1;durP1;ratioP1;P2;durP2;ratioP2
19024;SDS011;9645;51.448;6.260;2023-03-24T00:01:07;4.82;;;2.25;;
19024;SDS011;9645;51.448;6.260;2023-03-24T00:03:34;6.88;;;2.42;;
19024;SDS011;9645;51.448;6.260;2023-03-24T00:06:03;2.47;;;2.03;;
19024;SDS011;9645;51.448;6.260;2023-03-24T00:08:33;5.80;;;2.22;;
19024;SDS011;9645;51.448;6.260;2023-03-24T00:11:02;3.50;;;2.22;;
19024;SDS011;9645;51.448;6.260;2023-03-24T00:13:32;5.33;;;2.00;;
19024;SDS011;9645;51.448;6.260;2023-03-24T00:16:02;2.28;;;1.92;;
19024;SDS011;9645;51.448;6.260;2023-03-24T00:18:31;6.72;;;2.55;;
19024;SDS011;9645;51.448;6.260;2023-03-24T00:20:58;4.87;;;2.27;;
19024;SDS011;9645;51.448;6.260;2023-03-24T00:23:26;2.55;;;2.35;;
19024;SDS011;9645;51.448;6.260;2023-03-24T00:26:00;7.00;;;2.30;;
19024;SDS011;9645;51.448;6.260;2023-03-24T00:28:28;4.53;;;2.80;;
19024;SDS011;9645;51.448;6.260;2023-03-24T00:30:57;5.05;;;2.20;;
19024;SDS011;9645;51.448;6.260;2023-03-24T00:33:26;5.33;;;2.30;;
19024;SDS011;9645;51.448;6.260;2023-03-24T00:35:58;5.30;;;2.20;;
19024;SDS011;9645;51.448;6.260;2023-03-24T00:38:26;2.77;;;2.33;;
19024;SDS011;9645;51.448;6.260;2023-03-24T00:40:54;3.60;;;2.30;;
19024;SDS011;9645;51.448;6.260;2023-03-24T00:43:23;3.50;;;2.10;;
19024;SDS011;9645;51.448;6.260;2023-03-24T00:45:56;7.97;;;2.67;;
19024;SDS011;9645;51.448;6.260;2023-03-24T00:48:41;5.93;;;2.40;;
19024;SDS011;9645;51.448;6.260;2023-03-24T00:51:38;2.70;;;2.33;;
19024;SDS011;9645;51.448;6.260;2023-03-24T00:54:08;5.13;;;2.43;;
19024;SDS011;9645;51.448;6.260;2023-03-24T00:56:38;3.45;;;2.40;;
19024;SDS011;9645;51.448;6.260;2023-03-24T00:59:07;11.57;;;2.80;;
19024;SDS011;9645;51.448;6.260;2023-03-24T01:01:37;2.67;;;2.10;;
19024;SDS011;9645;51.448;6.260;2023-03-24T01:04:05;4.03;;;2.07;;
19024;SDS011;9645;51.448;6.260;2023-03-24T01:06:33;3.90;;;2.17;;
19024;SDS011;9645;51.448;6.260;2023-03-24T01:09:05;2.60;;;1.75;;
19024;SDS011;9645;51.448;6.260;2023-03-24T01:11:34;3.07;;;2.00;;
19024;SDS011;9645;51.448;6.260;2023-03-24T01:14:03;4.03;;;2.37;;
19024;SDS011;9645;51.448;6.260;2023-03-24T01:16:31;3.50;;;2.10;;
19024;SDS011;9645;51.448;6.260;2023-03-24T01:18:58;3.80;;;2.33;;
19024;SDS011;9645;51.448;6.260;2023-03-24T01:21:26;4.07;;;2.28;;
19024;SDS011;9645;51.448;6.260;2023-03-24T01:23:54;3.03;;;2.20;;
19024;SDS011;9645;51.448;6.260;2023-03-24T01:26:22;4.55;;;2.13;;
19024;SDS011;9645;51.448;6.260;2023-03-24T01:28:49;4.33;;;2.37;;
19024;SDS011;9645;51.448;6.260;2023-03-24T01:31:16;5.23;;;1.90;;
19024;SDS011;9645;51.448;6.260;2023-03-24T01:33:48;4.50;;;2.20;;
19024;SDS011;9645;51.448;6.260;2023-03-24T01:36:15;2.60;;;2.08;;
19024;SDS011;9645;51.448;6.260;2023-03-24T01:38:42;6.00;;;1.90;;
19024;SDS011;9645;51.448;6.260;2023-03-24T01:41:11;4.65;;;2.22;;
19024;SDS011;9645;51.448;6.260;2023-03-24T01:43:38;3.00;;;2.10;;
19024;SDS011;9645;51.448;6.260;2023-03-24T01:46:16;2.83;;;2.27;;
19024;SDS011;9645;51.448;6.260;2023-03-24T01:48:46;3.40;;;2.45;;
19024;SDS011;9645;51.448;6.260;2023-03-24T01:51:18;5.35;;;2.70;;
19024;SDS011;9645;51.448;6.260;2023-03-24T01:53:50;4.60;;;3.03;;
19024;SDS011;9645;51.448;6.260;2023-03-24T01:56:21;4.10;;;2.27;;
19024;SDS011;9645;51.448;6.260;2023-03-24T01:58:51;3.30;;;2.70;;
19024;SDS011;9645;51.448;6.260;2023-03-24T02:01:21;5.40;;;2.60;;
19024;SDS011;9645;51.448;6.260;2023-03-24T02:03:53;4.53;;;2.30;;
19024;SDS011;9645;51.448;6.260;2023-03-24T02:06:22;2.30;;;2.10;;
19024;SDS011;9645;51.448;6.260;2023-03-24T02:08:51;4.40;;;2.90;;
19024;SDS011;9645;51.448;6.260;2023-03-24T02:11:22;5.33;;;2.47;;
19024;SDS011;9645;51.448;6.260;2023-03-24T02:13:51;4.57;;;2.57;;
19024;SDS011;9645;51.448;6.260;2023-03-24T02:16:32;4.80;;;2.77;;
19024;SDS011;9645;51.448;6.260;2023-03-24T02:19:23;4.93;;;2.90;;
19024;SDS011;9645;51.448;6.260;2023-03-24T02:25:18;8.00;;;2.85;;
19024;SDS011;9645;51.448;6.260;2023-03-24T02:28:01;3.90;;;2.67;;
19024;SDS011;9645;51.448;6.260;2023-03-24T02:37:21;9.67;;;2.73;;
19024;SDS011;9645;51.448;6.260;2023-03-24T02:40:18;4.17;;;2.50;;
19024;SDS011;9645;51.448;6.260;2023-03-24T02:45:43;3.00;;;2.67;;
19024;SDS011;9645;51.448;6.260;2023-03-24T02:48:20;5.40;;;3.70;;
19024;SDS011;9645;51.448;6.260;2023-03-24T02:50:55;4.40;;;3.03;;
19024;SDS011;9645;51.448;6.260;2023-03-24T02:53:29;4.90;;;3.28;;
19024;SDS011;9645;51.448;6.260;2023-03-24T02:56:06;4.53;;;3.20;;
19024;SDS011;9645;51.448;6.260;2023-03-24T02:58:38;5.00;;;3.23;;
19024;SDS011;9645;51.448;6.260;2023-03-24T03:01:12;5.73;;;3.20;;
19024;SDS011;9645;51.448;6.260;2023-03-24T03:03:44;4.63;;;2.93;;
19024;SDS011;9645;51.448;6.260;2023-03-24T03:06:16;4.40;;;2.77;;
19024;SDS011;9645;51.448;6.260;2023-03-24T03:08:49;4.43;;;2.63;;
19024;SDS011;9645;51.448;6.260;2023-03-24T03:11:19;4.43;;;3.17;;
19024;SDS011;9645;51.448;6.260;2023-03-24T03:13:47;4.93;;;2.63;;
19024;SDS011;9645;51.448;6.260;2023-03-24T03:16:20;5.60;;;2.97;;
19024;SDS011;9645;51.448;6.260;2023-03-24T03:18:50;4.50;;;2.93;;
19024;SDS011;9645;51.448;6.260;2023-03-24T03:21:22;3.87;;;2.33;;
19024;SDS011;9645;51.448;6.260;2023-03-24T03:23:53;3.10;;;2.70;;
19024;SDS011;9645;51.448;6.260;2023-03-24T03:26:24;3.00;;;2.53;;
19024;SDS011;9645;51.448;6.260;2023-03-24T03:28:57;3.73;;;2.70;;
19024;SDS011;9645;51.448;6.260;2023-03-24T03:31:28;12.00;;;3.13;;
19024;SDS011;9645;51.448;6.260;2023-03-24T03:34:01;4.50;;;2.90;;
19024;SDS011;9645;51.448;6.260;2023-03-24T03:36:34;3.10;;;2.80;;
19024;SDS011;9645;51.448;6.260;2023-03-24T03:39:10;8.33;;;3.00;;
19024;SDS011;9645;51.448;6.260;2023-03-24T03:41:43;7.90;;;2.50;;
19024;SDS011;9645;51.448;6.260;2023-03-24T03:44:11;5.90;;;2.80;;
19024;SDS011;9645;51.448;6.260;2023-03-24T03:46:39;5.17;;;2.90;;
19024;SDS011;9645;51.448;6.260;2023-03-24T03:49:06;5.70;;;3.03;;
19024;SDS011;9645;51.448;6.260;2023-03-24T03:51:34;3.17;;;2.60;;
19024;SDS011;9645;51.448;6.260;2023-03-24T03:54:02;6.13;;;3.20;;
19024;SDS011;9645;51.448;6.260;2023-03-24T03:56:34;3.67;;;2.80;;
19024;SDS011;9645;51.448;6.260;2023-03-24T03:59:03;2.53;;;2.33;;
19024;SDS011;9645;51.448;6.260;2023-03-24T04:01:32;3.50;;;2.80;;
19024;SDS011;9645;51.448;6.260;2023-03-24T04:04:05;3.67;;;2.87;;
19024;SDS011;9645;51.448;6.260;2023-03-24T04:06:54;4.07;;;2.67;;
19024;SDS011;9645;51.448;6.260;2023-03-24T04:09:34;3.03;;;2.55;;
19024;SDS011;9645;51.448;6.260;2023-03-24T04:12:11;3.87;;;2.97;;
19024;SDS011;9645;51.448;6.260;2023-03-24T04:17:56;2.40;;;2.20;;
19024;SDS011;9645;51.448;6.260;2023-03-24T04:20:44;8.13;;;2.27;;
19024;SDS011;9645;51.448;6.260;2023-03-24T04:23:21;2.10;;;1.90;;
19024;SDS011;9645;51.448;6.260;2023-03-24T04:25:58;3.13;;;2.83;;
19024;SDS011;9645;51.448;6.260;2023-03-24T04:28:40;5.82;;;2.85;;
19024;SDS011;9645;51.448;6.260;2023-03-24T04:31:19;4.40;;;2.97;;
19024;SDS011;9645;51.448;6.260;2023-03-24T04:33:51;2.78;;;2.58;;
19024;SDS011;9645;51.448;6.260;2023-03-24T04:36:28;4.17;;;2.97;;
19024;SDS011;9645;51.448;6.260;2023-03-24T04:39:06;7.57;;;3.30;;
19024;SDS011;9645;51.448;6.260;2023-03-24T04:41:36;5.32;;;3.45;;
19024;SDS011;9645;51.448;6.260;2023-03-24T04:44:07;7.00;;;3.60;;
19024;SDS011;9645;51.448;6.260;2023-03-24T04:46:37;8.15;;;3.70;;
19024;SDS011;9645;51.448;6.260;2023-03-24T04:49:04;4.50;;;3.28;;
19024;SDS011;9645;51.448;6.260;2023-03-24T04:51:32;9.43;;;3.78;;
19024;SDS011;9645;51.448;6.260;2023-03-24T04:53:59;5.10;;;3.40;;
19024;SDS011;9645;51.448;6.260;2023-03-24T04:56:29;8.45;;;3.90;;
19024;SDS011;9645;51.448;6.260;2023-03-24T04:59:04;6.15;;;3.45;;
19024;SDS011;9645;51.448;6.260;2023-03-24T05:01:32;6.30;;;3.35;;
19024;SDS011;9645;51.448;6.260;2023-03-24T05:04:03;6.90;;;3.28;;
19024;SDS011;9645;51.448;6.260;2023-03-24T05:06:30;5.75;;;2.90;;
19024;SDS011;9645;51.448;6.260;2023-03-24T05:09:04;5.63;;;2.33;;
19024;SDS011;9645;51.448;6.260;2023-03-24T05:11:31;5.25;;;2.05;;
19024;SDS011;9645;51.448;6.260;2023-03-24T05:13:58;3.40;;;2.00;;
19024;SDS011;9645;51.448;6.260;2023-03-24T05:16:25;2.72;;;1.60;;
19024;SDS011;9645;51.448;6.260;2023-03-24T05:18:52;3.30;;;2.05;;
19024;SDS011;9645;51.448;6.260;2023-03-24T05:21:23;14.48;;;2.00;;
19024;SDS011;9645;51.448;6.260;2023-03-24T05:26:33;4.72;;;2.15;;
19024;SDS011;9645;51.448;6.260;2023-03-24T05:29:01;5.45;;;2.90;;
19024;SDS011;9645;51.448;6.260;2023-03-24T05:31:28;2.55;;;1.70;;
19024;SDS011;9645;51.448;6.260;2023-03-24T05:33:55;8.18;;;1.50;;
19024;SDS011;9645;51.448;6.260;2023-03-24T05:36:24;6.18;;;1.50;;
19024;SDS011;9645;51.448;6.260;2023-03-24T05:38:51;3.20;;;1.60;;
19024;SDS011;9645;51.448;6.260;2023-03-24T05:41:19;4.82;;;1.05;;
19024;SDS011;9645;51.448;6.260;2023-03-24T05:43:52;4.47;;;1.25;;
19024;SDS011;9645;51.448;6.260;2023-03-24T05:49:13;14.93;;;1.85;;
19024;SDS011;9645;51.448;6.260;2023-03-24T05:50:06;4.65;;;1.40;;
19024;SDS011;9645;51.448;6.260;2023-03-24T05:52:35;6.25;;;1.58;;
19024;SDS011;9645;51.448;6.260;2023-03-24T05:55:02;9.25;;;1.90;;
19024;SDS011;9645;51.448;6.260;2023-03-24T05:57:31;5.18;;;1.50;;
19024;SDS011;9645;51.448;6.260;2023-03-24T05:59:58;5.68;;;1.05;;
19024;SDS011;9645;51.448;6.260;2023-03-24T06:02:26;7.03;;;2.00;;
19024;SDS011;9645;51.448;6.260;2023-03-24T06:04:53;13.48;;;1.50;;
19024;SDS011;9645;51.448;6.260;2023-03-24T06:07:21;2.35;;;1.23;;
19024;SDS011;9645;51.448;6.260;2023-03-24T06:09:52;4.82;;;1.50;;
19024;SDS011;9645;51.448;6.260;2023-03-24T06:12:22;12.18;;;1.58;;
19024;SDS011;9645;51.448;6.260;2023-03-24T06:14:49;7.53;;;1.80;;
19024;SDS011;9645;51.448;6.260;2023-03-24T06:17:16;9.60;;;1.60;;
19024;SDS011;9645;51.448;6.260;2023-03-24T06:19:45;4.18;;;1.40;;
19024;SDS011;9645;51.448;6.260;2023-03-24T06:22:14;5.75;;;1.45;;
19024;SDS011;9645;51.448;6.260;2023-03-24T06:24:42;15.77;;;1.63;;
19024;SDS011;9645;51.448;6.260;2023-03-24T06:27:11;8.65;;;1.50;;
19024;SDS011;9645;51.448;6.260;2023-03-24T06:29:50;14.38;;;1.33;;
19024;SDS011;9645;51.448;6.260;2023-03-24T06:32:17;3.63;;;1.60;;
19024;SDS011;9645;51.448;6.260;2023-03-24T06:34:45;6.53;;;1.60;;
19024;SDS011;9645;51.448;6.260;2023-03-24T06:37:12;6.03;;;1.30;;
19024;SDS011;9645;51.448;6.260;2023-03-24T06:39:39;3.70;;;1.10;;
19024;SDS011;9645;51.448;6.260;2023-03-24T06:42:06;8.50;;;1.93;;
19024;SDS011;9645;51.448;6.260;2023-03-24T06:44:35;4.67;;;1.20;;
19024;SDS011;9645;51.448;6.260;2023-03-24T06:47:02;5.83;;;1.13;;
19024;SDS011;9645;51.448;6.260;2023-03-24T06:49:29;10.50;;;1.33;;
19024;SDS011;9645;51.448;6.260;2023-03-24T06:51:58;11.80;;;2.07;;
19024;SDS011;9645;51.448;6.260;2023-03-24T06:54:26;12.43;;;1.93;;
19024;SDS011;9645;51.448;6.260;2023-03-24T06:56:53;5.57;;;1.50;;
19024;SDS011;9645;51.448;6.260;2023-03-24T06:59:20;6.57;;;1.43;;
19024;SDS011;9645;51.448;6.260;2023-03-24T07:01:50;7.30;;;1.60;;
19024;SDS011;9645;51.448;6.260;2023-03-24T07:04:17;15.48;;;1.73;;
19024;SDS011;9645;51.448;6.260;2023-03-24T07:06:44;10.30;;;1.57;;
19024;SDS011;9645;51.448;6.260;2023-03-24T07:09:11;5.00;;;1.55;;
19024;SDS011;9645;51.448;6.260;2023-03-24T07:11:39;8.90;;;1.35;;
19024;SDS011;9645;51.448;6.260;2023-03-24T07:14:06;8.27;;;1.47;;
19024;SDS011;9645;51.448;6.260;2023-03-24T07:16:33;9.73;;;1.50;;
19024;SDS011;9645;51.448;6.260;2023-03-24T07:19:02;9.53;;;1.33;;
19024;SDS011;9645;51.448;6.260;2023-03-24T07:21:29;13.90;;;1.87;;
19024;SDS011;9645;51.448;6.260;2023-03-24T07:23:56;9.60;;;1.30;;
19024;SDS011;9645;51.448;6.260;2023-03-24T07:26:23;6.83;;;1.33;;
19024;SDS011;9645;51.448;6.260;2023-03-24T07:28:50;22.97;;;2.37;;
19024;SDS011;9645;51.448;6.260;2023-03-24T07:31:17;12.03;;;1.63;;
19024;SDS011;9645;51.448;6.260;2023-03-24T07:33:46;14.03;;;1.50;;
19024;SDS011;9645;51.448;6.260;2023-03-24T07:36:15;16.43;;;1.57;;
19024;SDS011;9645;51.448;6.260;2023-03-24T07:38:42;7.70;;;1.73;;
19024;SDS011;9645;51.448;6.260;2023-03-24T07:41:12;3.17;;;1.17;;
19024;SDS011;9645;51.448;6.260;2023-03-24T07:43:43;9.23;;;1.40;;
19024;SDS011;9645;51.448;6.260;2023-03-24T07:46:10;6.90;;;1.40;;
19024;SDS011;9645;51.448;6.260;2023-03-24T07:48:37;10.90;;;1.40;;
19024;SDS011;9645;51.448;6.260;2023-03-24T07:51:04;8.63;;;1.20;;
19024;SDS011;9645;51.448;6.260;2023-03-24T07:53:32;3.57;;;1.40;;
19024;SDS011;9645;51.448;6.260;2023-03-24T07:56:00;8.60;;;1.97;;
19024;SDS011;9645;51.448;6.260;2023-03-24T07:58:27;6.20;;;1.50;;
19024;SDS011;9645;51.448;6.260;2023-03-24T08:00:54;7.40;;;1.47;;
19024;SDS011;9645;51.448;6.260;2023-03-24T08:03:21;7.47;;;1.77;;
19024;SDS011;9645;51.448;6.260;2023-03-24T08:05:52;5.73;;;1.20;;
19024;SDS011;9645;51.448;6.260;2023-03-24T08:08:20;7.07;;;1.70;;
19024;SDS011;9645;51.448;6.260;2023-03-24T08:10:48;5.40;;;1.67;;
19024;SDS011;9645;51.448;6.260;2023-03-24T08:13:15;7.37;;;1.47;;
19024;SDS011;9645;51.448;6.260;2023-03-24T08:15:43;7.70;;;2.50;;
19024;SDS011;9645;51.448;6.260;2023-03-24T08:18:10;7.03;;;1.20;;
19024;SDS011;9645;51.448;6.260;2023-03-24T08:20:37;7.20;;;2.17;;
19024;SDS011;9645;51.448;6.260;2023-03-24T08:23:05;9.37;;;1.90;;
19024;SDS011;9645;51.448;6.260;2023-03-24T08:25:32;5.73;;;1.77;;
19024;SDS011;9645;51.448;6.260;2023-03-24T08:28:01;4.67;;;1.30;;
19024;SDS011;9645;51.448;6.260;2023-03-24T08:30:30;4.43;;;1.50;;
19024;SDS011;9645;51.448;6.260;2023-03-24T08:32:57;8.03;;;2.00;;
19024;SDS011;9645;51.448;6.260;2023-03-24T08:35:26;6.87;;;1.97;;
19024;SDS011;9645;51.448;6.260;2023-03-24T08:37:55;10.60;;;1.90;;
19024;SDS011;9645;51.448;6.260;2023-03-24T08:40:23;6.43;;;1.73;;
19024;SDS011;9645;51.448;6.260;2023-03-24T08:42:52;8.07;;;2.07;;
19024;SDS011;9645;51.448;6.260;2023-03-24T08:45:22;10.20;;;1.90;;
19024;SDS011;9645;51.448;6.260;2023-03-24T08:47:51;5.70;;;1.60;;
19024;SDS011;9645;51.448;6.260;2023-03-24T08:50:20;5.23;;;1.53;;
19024;SDS011;9645;51.448;6.260;2023-03-24T08:52:48;6.93;;;1.90;;
19024;SDS011;9645;51.448;6.260;2023-03-24T08:55:16;11.17;;;1.80;;
19024;SDS011;9645;51.448;6.260;2023-03-24T08:57:46;6.80;;;1.80;;
19024;SDS011;9645;51.448;6.260;2023-03-24T09:00:14;6.93;;;2.00;;
19024;SDS011;9645;51.448;6.260;2023-03-24T09:02:45;5.70;;;1.80;;
19024;SDS011;9645;51.448;6.260;2023-03-24T09:05:13;15.30;;;2.20;;
19024;SDS011;9645;51.448;6.260;2023-03-24T09:07:43;7.97;;;2.73;;
19024;SDS011;9645;51.448;6.260;2023-03-24T09:10:11;11.23;;;2.13;;
19024;SDS011;9645;51.448;6.260;2023-03-24T09:12:39;4.77;;;1.47;;
19024;SDS011;9645;51.448;6.260;2023-03-24T09:15:07;7.00;;;2.00;;
19024;SDS011;9645;51.448;6.260;2023-03-24T09:17:36;11.47;;;2.10;;
19024;SDS011;9645;51.448;6.260;2023-03-24T09:20:06;6.63;;;1.53;;
19024;SDS011;9645;51.448;6.260;2023-03-24T09:22:36;9.67;;;1.83;;
19024;SDS011;9645;51.448;6.260;2023-03-24T09:25:03;5.17;;;1.67;;
19024;SDS011;9645;51.448;6.260;2023-03-24T09:27:31;17.80;;;1.83;;
19024;SDS011;9645;51.448;6.260;2023-03-24T09:29:58;10.87;;;1.97;;
19024;SDS011;9645;51.448;6.260;2023-03-24T09:32:25;8.97;;;2.20;;
19024;SDS011;9645;51.448;6.260;2023-03-24T09:34:52;4.07;;;1.80;;
19024;SDS011;9645;51.448;6.260;2023-03-24T09:37:20;6.93;;;1.70;;
19024;SDS011;9645;51.448;6.260;2023-03-24T09:39:47;10.30;;;2.10;;
19024;SDS011;9645;51.448;6.260;2023-03-24T09:42:17;9.87;;;1.83;;
19024;SDS011;9645;51.448;6.260;2023-03-24T09:44:49;7.87;;;1.40;;
19024;SDS011;9645;51.448;6.260;2023-03-24T09:47:24;9.37;;;1.13;;
19024;SDS011;9645;51.448;6.260;2023-03-24T09:49:57;3.00;;;1.30;;
19024;SDS011;9645;51.448;6.260;2023-03-24T09:52:31;9.60;;;1.77;;
19024;SDS011;9645;51.448;6.260;2023-03-24T09:55:01;10.73;;;2.00;;
19024;SDS011;9645;51.448;6.260;2023-03-24T09:57:32;8.93;;;1.40;;
19024;SDS011;9645;51.448;6.260;2023-03-24T10:00:07;5.60;;;1.60;;
19024;SDS011;9645;51.448;6.260;2023-03-24T10:02:42;11.30;;;1.60;;
19024;SDS011;9645;51.448;6.260;2023-03-24T10:05:13;9.47;;;1.77;;
19024;SDS011;9645;51.448;6.260;2023-03-24T10:07:44;9.83;;;1.77;;
19024;SDS011;9645;51.448;6.260;2023-03-24T10:10:18;3.90;;;1.70;;
19024;SDS011;9645;51.448;6.260;2023-03-24T10:12:52;4.40;;;1.30;;
19024;SDS011;9645;51.448;6.260;2023-03-24T10:15:29;6.43;;;1.73;;
19024;SDS011;9645;51.448;6.260;2023-03-24T10:18:04;6.03;;;1.27;;
19024;SDS011;9645;51.448;6.260;2023-03-24T10:20:49;4.03;;;1.40;;
19024;SDS011;9645;51.448;6.260;2023-03-24T10:23:21;5.43;;;1.40;;
19024;SDS011;9645;51.448;6.260;2023-03-24T10:25:55;9.87;;;1.60;;
19024;SDS011;9645;51.448;6.260;2023-03-24T10:28:32;13.50;;;1.70;;
19024;SDS011;9645;51.448;6.260;2023-03-24T10:31:04;7.03;;;1.60;;
19024;SDS011;9645;51.448;6.260;2023-03-24T10:33:37;7.43;;;1.63;;
19024;SDS011;9645;51.448;6.260;2023-03-24T10:36:08;13.03;;;1.40;;
19024;SDS011;9645;51.448;6.260;2023-03-24T10:38:40;7.67;;;2.03;;
19024;SDS011;9645;51.448;6.260;2023-03-24T10:41:09;9.33;;;2.33;;
19024;SDS011;9645;51.448;6.260;2023-03-24T10:43:41;9.80;;;1.60;;
19024;SDS011;9645;51.448;6.260;2023-03-24T10:46:10;4.37;;;1.90;;
19024;SDS011;9645;51.448;6.260;2023-03-24T10:48:41;7.10;;;1.70;;
19024;SDS011;9645;51.448;6.260;2023-03-24T10:51:13;5.07;;;1.50;;
19024;SDS011;9645;51.448;6.260;2023-03-24T10:53:43;5.20;;;1.37;;
19024;SDS011;9645;51.448;6.260;2023-03-24T10:56:14;12.53;;;1.50;;
19024;SDS011;9645;51.448;6.260;2023-03-24T10:58:42;11.07;;;1.90;;
19024;SDS011;9645;51.448;6.260;2023-03-24T11:01:19;7.43;;;1.67;;
19024;SDS011;9645;51.448;6.260;2023-03-24T11:03:50;16.00;;;2.30;;
19024;SDS011;9645;51.448;6.260;2023-03-24T11:06:18;3.70;;;1.50;;
19024;SDS011;9645;51.448;6.260;2023-03-24T11:08:48;10.40;;;1.87;;
19024;SDS011;9645;51.448;6.260;2023-03-24T11:11:34;12.73;;;2.70;;
19024;SDS011;9645;51.448;6.260;2023-03-24T11:14:01;5.00;;;1.50;;
19024;SDS011;9645;51.448;6.260;2023-03-24T11:16:30;13.57;;;2.03;;
19024;SDS011;9645;51.448;6.260;2023-03-24T11:19:04;6.03;;;1.83;;
19024;SDS011;9645;51.448;6.260;2023-03-24T11:24:55;13.03;;;1.70;;
19024;SDS011;9645;51.448;6.260;2023-03-24T11:27:22;4.30;;;1.73;;
19024;SDS011;9645;51.448;6.260;2023-03-24T11:29:51;9.63;;;1.60;;
19024;SDS011;9645;51.448;6.260;2023-03-24T11:32:21;15.97;;;2.27;;
19024;SDS011;9645;51.448;6.260;2023-03-24T11:34:54;4.30;;;1.77;;
19024;SDS011;9645;51.448;6.260;2023-03-24T11:37:27;16.67;;;1.60;;
19024;SDS011;9645;51.448;6.260;2023-03-24T11:40:08;7.33;;;1.80;;
19024;SDS011;9645;51.448;6.260;2023-03-24T11:42:46;6.43;;;1.50;;
19024;SDS011;9645;51.448;6.260;2023-03-24T11:45:22;9.03;;;1.80;;
19024;SDS011;9645;51.448;6.260;2023-03-24T11:47:53;2.90;;;1.40;;
19024;SDS011;9645;51.448;6.260;2023-03-24T11:50:23;6.07;;;1.40;;
19024;SDS011;9645;51.448;6.260;2023-03-24T11:52:57;6.33;;;1.80;;
19024;SDS011;9645;51.448;6.260;2023-03-24T11:55:38;8.87;;;1.70;;
19024;SDS011;9645;51.448;6.260;2023-03-24T11:58:13;6.97;;;1.93;;
19024;SDS011;9645;51.448;6.260;2023-03-24T12:00:46;4.77;;;1.50;;
19024;SDS011;9645;51.448;6.260;2023-03-24T12:03:23;5.90;;;1.47;;
19024;SDS011;9645;51.448;6.260;2023-03-24T12:06:09;8.67;;;1.60;;
19024;SDS011;9645;51.448;6.260;2023-03-24T12:08:51;7.67;;;1.47;;
19024;SDS011;9645;51.448;6.260;2023-03-24T12:11:31;11.13;;;1.50;;
19024;SDS011;9645;51.448;6.260;2023-03-24T12:14:10;9.40;;;1.83;;
19024;SDS011;9645;51.448;6.260;2023-03-24T12:16:42;7.97;;;1.97;;
19024;SDS011;9645;51.448;6.260;2023-03-24T12:19:30;8.17;;;2.00;;
19024;SDS011;9645;51.448;6.260;2023-03-24T12:22:09;3.70;;;1.07;;
19024;SDS011;9645;51.448;6.260;2023-03-24T12:24:52;4.40;;;1.33;;
19024;SDS011;9645;51.448;6.260;2023-03-24T12:27:36;3.47;;;1.27;;
19024;SDS011;9645;51.448;6.260;2023-03-24T12:30:14;1.10;;;1.00;;
19024;SDS011;9645;51.448;6.260;2023-03-24T12:32:55;4.13;;;1.40;;
19024;SDS011;9645;51.448;6.260;2023-03-24T12:38:36;6.30;;;1.20;;
19024;SDS011;9645;51.448;6.260;2023-03-24T12:41:16;10.90;;;1.43;;
19024;SDS011;9645;51.448;6.260;2023-03-24T12:44:00;12.40;;;1.63;;
19024;SDS011;9645;51.448;6.260;2023-03-24T12:46:47;6.67;;;1.60;;
19024;SDS011;9645;51.448;6.260;2023-03-24T12:49:25;7.87;;;1.90;;
19024;SDS011;9645;51.448;6.260;2023-03-24T12:52:09;4.37;;;1.53;;
19024;SDS011;9645;51.448;6.260;2023-03-24T12:54:50;9.63;;;1.80;;
19024;SDS011;9645;51.448;6.260;2023-03-24T12:57:20;7.70;;;2.90;;
19024;SDS011;9645;51.448;6.260;2023-03-24T12:59:53;7.43;;;1.87;;
19024;SDS011;9645;51.448;6.260;2023-03-24T13:02:26;9.13;;;2.47;;
19024;SDS011;9645;51.448;6.260;2023-03-24T13:04:59;18.50;;;2.33;;
19024;SDS011;9645;51.448;6.260;2023-03-24T13:07:29;6.00;;;1.53;;
19024;SDS011;9645;51.448;6.260;2023-03-24T13:10:02;6.63;;;1.80;;
19024;SDS011;9645;51.448;6.260;2023-03-24T13:12:39;15.30;;;2.40;;
19024;SDS011;9645;51.448;6.260;2023-03-24T13:15:14;8.53;;;2.50;;
19024;SDS011;9645;51.448;6.260;2023-03-24T13:17:44;5.93;;;1.93;;
19024;SDS011;9645;51.448;6.260;2023-03-24T13:20:19;3.97;;;1.60;;
19024;SDS011;9645;51.448;6.260;2023-03-24T13:22:50;2.80;;;2.00;;
19024;SDS011;9645;51.448;6.260;2023-03-24T13:25:20;5.33;;;1.63;;
19024;SDS011;9645;51.448;6.260;2023-03-24T13:27:53;3.27;;;1.17;;
19024;SDS011;9645;51.448;6.260;2023-03-24T13:30:29;4.33;;;1.73;;
19024;SDS011;9645;51.448;6.260;2023-03-24T13:33:02;7.33;;;2.00;;
19024;SDS011;9645;51.448;6.260;2023-03-24T13:35:36;7.37;;;1.20;;
19024;SDS011;9645;51.448;6.260;2023-03-24T13:38:15;2.87;;;0.83;;
19024;SDS011;9645;51.448;6.260;2023-03-24T13:40:46;3.83;;;1.00;;
19024;SDS011;9645;51.448;6.260;2023-03-24T13:43:17;2.63;;;0.98;;
19024;SDS011;9645;51.448;6.260;2023-03-24T13:45:48;1.85;;;0.70;;
19024;SDS011;9645;51.448;6.260;2023-03-24T13:48:22;4.30;;;0.93;;
19024;SDS011;9645;51.448;6.260;2023-03-24T13:50:55;1.58;;;0.88;;
19024;SDS011;9645;51.448;6.260;2023-03-24T13:53:27;1.63;;;0.90;;
19024;SDS011;9645;51.448;6.260;2023-03-24T13:55:59;1.83;;;0.80;;
19024;SDS011;9645;51.448;6.260;2023-03-24T13:58:44;1.93;;;1.00;;
19024;SDS011;9645;51.448;6.260;2023-03-24T14:01:29;5.93;;;0.80;;
19024;SDS011;9645;51.448;6.260;2023-03-24T14:04:14;3.20;;;1.10;;
19024;SDS011;9645;51.448;6.260;2023-03-24T14:06:47;4.30;;;1.30;;
19024;SDS011;9645;51.448;6.260;2023-03-24T14:09:16;3.60;;;1.67;;
19024;SDS011;9645;51.448;6.260;2023-03-24T14:11:48;2.80;;;1.07;;
19024;SDS011;9645;51.448;6.260;2023-03-24T14:14:35;6.47;;;1.10;;
19024;SDS011;9645;51.448;6.260;2023-03-24T14:17:25;2.90;;;1.00;;
19024;SDS011;9645;51.448;6.260;2023-03-24T14:22:39;1.13;;;1.03;;
19024;SDS011;9645;51.448;6.260;2023-03-24T14:25:20;3.93;;;1.13;;
19024;SDS011;9645;51.448;6.260;2023-03-24T14:27:53;3.23;;;1.00;;
19024;SDS011;9645;51.448;6.260;2023-03-24T14:30:34;2.87;;;1.30;;
19024;SDS011;9645;51.448;6.260;2023-03-24T14:33:19;1.90;;;0.90;;
19024;SDS011;9645;51.448;6.260;2023-03-24T14:35:49;2.37;;;0.97;;
19024;SDS011;9645;51.448;6.260;2023-03-24T14:38:25;5.80;;;1.17;;
19024;SDS011;9645;51.448;6.260;2023-03-24T14:40:55;3.43;;;1.30;;
19024;SDS011;9645;51.448;6.260;2023-03-24T14:43:24;4.00;;;1.10;;
19024;SDS011;9645;51.448;6.260;2023-03-24T14:45:57;2.70;;;1.70;;
19024;SDS011;9645;51.448;6.260;2023-03-24T14:48:37;3.20;;;1.27;;
19024;SDS011;9645;51.448;6.260;2023-03-24T14:51:11;5.90;;;1.50;;
19024;SDS011;9645;51.448;6.260;2023-03-24T14:53:49;4.37;;;1.40;;
19024;SDS011;9645;51.448;6.260;2023-03-24T14:56:21;7.80;;;1.43;;
19024;SDS011;9645;51.448;6.260;2023-03-24T14:58:49;1.80;;;1.10;;
19024;SDS011;9645;51.448;6.260;2023-03-24T15:01:23;4.20;;;1.40;;
19024;SDS011;9645;51.448;6.260;2023-03-24T15:03:56;9.52;;;2.45;;
19024;SDS011;9645;51.448;6.260;2023-03-24T15:06:29;6.40;;;1.37;;
19024;SDS011;9645;51.448;6.260;2023-03-24T15:08:56;4.00;;;1.43;;
19024;SDS011;9645;51.448;6.260;2023-03-24T15:11:26;6.97;;;1.73;;
19024;SDS011;9645;51.448;6.260;2023-03-24T15:13:55;2.87;;;1.40;;
19024;SDS011;9645;51.448;6.260;2023-03-24T15:16:24;7.93;;;1.67;;
19024;SDS011;9645;51.448;6.260;2023-03-24T15:18:54;7.53;;;1.73;;
19024;SDS011;9645;51.448;6.260;2023-03-24T15:21:25;4.82;;;1.50;;
19024;SDS011;9645;51.448;6.260;2023-03-24T15:23:54;5.25;;;1.50;;
19024;SDS011;9645;51.448;6.260;2023-03-24T15:26:23;3.95;;;1.30;;
19024;SDS011;9645;51.448;6.260;2023-03-24T15:28:59;9.73;;;1.90;;
19024;SDS011;9645;51.448;6.260;2023-03-24T15:31:36;8.67;;;1.50;;
19024;SDS011;9645;51.448;6.260;2023-03-24T15:34:22;3.80;;;1.20;;
19024;SDS011;9645;51.448;6.260;2023-03-24T15:36:52;4.23;;;1.80;;
19024;SDS011;9645;51.448;6.260;2023-03-24T15:39:24;1.60;;;1.47;;
19024;SDS011;9645;51.448;6.260;2023-03-24T15:41:56;2.73;;;1.47;;
19024;SDS011;9645;51.448;6.260;2023-03-24T15:44:28;3.60;;;1.43;;
19024;SDS011;9645;51.448;6.260;2023-03-24T15:46:56;3.10;;;1.70;;
19024;SDS011;9645;51.448;6.260;2023-03-24T15:49:29;3.60;;;1.53;;
19024;SDS011;9645;51.448;6.260;2023-03-24T15:52:02;4.33;;;1.47;;
19024;SDS011;9645;51.448;6.260;2023-03-24T15:54:35;6.68;;;2.00;;
19024;SDS011;9645;51.448;6.260;2023-03-24T15:57:13;2.70;;;1.10;;